Аэропорт: Храброво. Калининград

ICAO: UMKK

METAR:
2019/05/26 14:00
UMKK 261400Z 22006MPS 9999 BKN026 14/07 Q1008 R24/CLRD60 NOSIG RMK QFE754/1006
METAR:
2019/05/26 12:24
TAF UMKK 261059Z 2612/2712 24008G13MPS 9999 BKN011 BKN020 
      TEMPO 2612/2618 -SHRA BKN020CB 
      TEMPO 2618/2623 4000 -SHRA BKN007 BKN015CB 
      BECMG 2623/2701 21006G11MPS 3100 -RA BR 
      TEMPO 2623/2703 BKN004